• Join FlightAware (Why Join?)
  • Login
  • US Flag 
10:51AM EDT


 

Airport Tracker/Info


-or-


 

Live Flight TrackerFlight Track Log ✈ CTL13 ✈ 02-May-2013 ✈ KBKL - KEYE

Flight Track Log - Related Links

Times and Time Zones

All times are in EDT time to prevent confusion due to time zone crossing. See the CTL13 flight status page for this flight to view local times or setup timezone preferences in your user account.

Time Position Orientation Groundspeed Altitude Reporting Facility
EDT Latitude Longitude Course Direction KTS MPH feet Rate Location/Type
06:37PM 41.5253 -81.6675 248° West 110 127 1,400  Level Cleveland Center
06:37PM 41.5317 -81.6567 52° Northeast 109 125 1,900 1,080 Climbing Cleveland Center
06:38PM 41.5342 -81.6206 85° East 125 144 3,000 1,020 Climbing Cleveland Center
06:39PM 41.5008 -81.6144 172° South 120 138 4,000 960 Climbing Cleveland Center
06:41PM 41.4633 -81.6056 170° South 126 145 5,100 900 Climbing Cleveland Center
06:42PM 41.4281 -81.6022 176° South 122 140 6,000 780 Climbing Cleveland Center
06:43PM 41.3948 -81.9836 248° West  Level FlightAware Approximate
06:43PM 41.3925 -81.5989 176° South 126 145 6,700  Level Cleveland Center
06:44PM 41.3653 -81.6261 217° Southwest 149 171 7,300 540 Climbing Cleveland Center
06:45PM 41.3503 -81.6783 249° West 153 176 7,800 360 Climbing Cleveland Center
06:46PM 41.3331 -81.7308 246° West 153 176 8,100 180 Climbing Cleveland Center
06:47PM 41.3136 -81.7856 245° Southwest 170 196 8,200 180 Climbing Cleveland Center
06:48PM 41.2944 -81.8406 245° Southwest 161 185 8,500 420 Climbing Cleveland Center
06:48PM 41.2792 -81.8872 246° West 149 171 9,100 600 Climbing Cleveland Center
06:49PM 41.2728 -81.9064 246° West 147 169 9,300 360 Climbing Cleveland Center
06:50PM 41.2556 -81.9558 245° Southwest 153 176 9,700 360 Climbing Cleveland Center
06:51PM 41.2403 -82.0025 246° West 148 170 10,100 180 Climbing Cleveland Center
06:52PM 41.2250 -82.0519 248° West 148 170 10,100  Level Cleveland Center
06:53PM 41.2078 -82.1039 246° West 158 182 10,100  Level Cleveland Center
06:54PM 41.1883 -82.1558 244° Southwest 163 188 10,200  Climbing Cleveland Center
06:55PM 41.1728 -82.2106 249° West 163 188 10,100 -60 Descending Cleveland Center
06:56PM 41.1556 -82.2625 246° West 163 188 10,100  Level Cleveland Center
06:57PM 41.1381 -82.3144 246° West 158 182 10,100  Level Cleveland Center
06:58PM 41.1225 -82.3664 248° West 153 176 10,100 -60 Level Cleveland Center
06:59PM 41.1050 -82.4239 248° West 153 176 10,000 -60 Descending Cleveland Center
07:00PM 41.0875 -82.4814 248° West 158 182 10,000  Level Cleveland Center
07:01PM 41.0719 -82.5331 248° West 158 182 10,000  Level Cleveland Center
07:02PM 41.0544 -82.5850 246° West 158 182 10,000  Level Cleveland Center
07:03PM 41.0367 -82.6394 247° West 158 182 10,000  Level Cleveland Center
07:04PM 41.0211 -82.6914 248° West 158 182 10,000  Level Cleveland Center
07:05PM 41.0033 -82.7458 247° West 158 182 10,000  Level Cleveland Center
07:06PM 40.9881 -82.7947 248° West 153 176 10,000  Level Cleveland Center
07:07PM 40.9703 -82.8464 246° West 153 176 10,000  Level Cleveland Center
07:08PM 40.9544 -82.9008 249° West 153 176 10,000  Level Cleveland Center
07:09PM 40.9389 -82.9469 246° West 153 176 10,000  Level Cleveland Center
07:10PM 40.9214 -82.9986 246° West 153 176 10,000  Level Cleveland Center
07:11PM 40.9075 -83.0531 251° West 153 176 10,000  Level Cleveland Center
07:12PM 40.8875 -83.1072 244° Southwest 153 176 10,000  Level Cleveland Center
07:13PM 40.8739 -83.1589 251° West 158 182 10,000  Level Cleveland Center
07:14PM 40.8539 -83.2186 246° West 158 182 10,000  Level Cleveland Center
07:15PM 40.8358 -83.2728 246° West 158 182 10,000  Level Cleveland Center
07:17PM 40.7939 -83.3986 246° West 156 180 10,100  Climbing Indianapolis Center
07:18PM 40.7767 -83.4544 248° West 159 183 10,100  Level Indianapolis Center
07:19PM 40.7597 -83.5086 248° West 159 183 10,100  Level Indianapolis Center
07:21PM 40.7428 -83.5636 248° West 161 185 10,100  Level Indianapolis Center
07:22PM 40.7244 -83.6186 246° West 162 186 10,100  Level Indianapolis Center
07:23PM 40.7050 -83.6825 248° West 160 184 10,100  Level Indianapolis Center
07:24PM 40.6875 -83.7375 247° West 161 185 10,100  Level Indianapolis Center
07:25PM 40.6686 -83.7908 245° Southwest 160 184 10,100  Level Indianapolis Center
07:25PM 40.6606 -83.8161 247° West 161 185 10,100  Level Indianapolis Center
07:26PM 40.6503 -83.8456 245° Southwest 161 185 10,100  Level Indianapolis Center
07:26PM 40.6419 -83.8689 245° Southwest 160 184 10,100  Level Indianapolis Center
07:27PM 40.6308 -83.8992 244° Southwest 162 186 10,100  Level Indianapolis Center
07:27PM 40.6211 -83.9211 240° Southwest 161 185 10,100 -120 Level Indianapolis Center
07:28PM 40.6089 -83.9497 241° Southwest 160 184 10,000 -60 Descending Indianapolis Center
07:29PM 40.5864 -84.0011 240° Southwest 160 184 10,000  Level Indianapolis Center
07:29PM 40.5708 -84.0328 237° Southwest 158 182 10,000  Level Indianapolis Center
07:30PM 40.5625 -84.0506 238° Southwest 159 183 10,000  Level Indianapolis Center
07:31PM 40.5381 -84.1106 242° Southwest 158 182 10,000  Level Indianapolis Center
07:32PM 40.5150 -84.1608 239° Southwest 160 184 10,000  Level Indianapolis Center
07:33PM 40.4931 -84.2111 240° Southwest 159 183 10,000  Level Indianapolis Center
07:34PM 40.4642 -84.2739 239° Southwest 159 183 10,000  Level Indianapolis Center
07:35PM 40.4478 -84.3117 240° Southwest 158 182 10,000  Level Indianapolis Center
07:35PM 40.4383 -84.3333 240° Southwest 159 183 10,000  Level Indianapolis Center
07:36PM 40.4264 -84.3633 242° Southwest 158 182 10,000 60 Level Indianapolis Center
07:36PM 40.4158 -84.3825 234° Southwest 158 182 10,100  Climbing Indianapolis Center
07:37PM 40.4031 -84.4128 241° Southwest 158 182 10,000  Descending Indianapolis Center
07:37PM 40.3950 -84.4317 241° Southwest 159 183 10,100 60 Climbing Indianapolis Center
07:38PM 40.3803 -84.4650 240° Southwest 161 185 10,100  Level Indianapolis Center
07:38PM 40.3719 -84.4833 239° Southwest 160 184 10,100  Level Indianapolis Center
07:39PM 40.3583 -84.5161 241° Southwest 161 185 10,100  Level Indianapolis Center
07:40PM 40.3328 -84.5747 240° Southwest 158 182 10,100  Level Indianapolis Center
07:41PM 40.3092 -84.6253 239° Southwest 159 183 10,100  Level Indianapolis Center
07:42PM 40.2869 -84.6764 240° Southwest 159 183 10,100  Level Indianapolis Center
07:43PM 40.2639 -84.7261 239° Southwest 159 183 10,100  Level Indianapolis Center
07:44PM 40.2414 -84.7767 240° Southwest 160 184 10,100  Level Indianapolis Center
07:45PM 40.2203 -84.8269 241° Southwest 158 182 10,100  Level Indianapolis Center
07:46PM 40.1992 -84.8767 241° Southwest 156 180 10,100  Level Indianapolis Center
07:47PM 40.1775 -84.9244 239° Southwest 158 182 10,100  Level Indianapolis Center
07:48PM 40.1522 -84.9831 241° Southwest 158 182 10,100  Level Indianapolis Center
07:49PM 40.1314 -85.0319 241° Southwest 159 183 10,100 -60 Level Indianapolis Center
07:51PM 40.1000 -85.1000 239° Southwest 160 184 10,000 -60 Descending Indianapolis TRACON
07:51PM 40.0819 -85.1322 234° Southwest 160 184 10,000 60 Level Indianapolis Center
07:52PM 40.0583 -85.1808 238° Southwest 159 183 10,100  Climbing Indianapolis Center
07:53PM 40.0453 -85.2367 253° West 162 186 10,000 -420 Descending Indianapolis Center
07:54PM 40.0336 -85.2958 256° West 167 192 9,300 -720 Descending Indianapolis Center
07:55PM 40.0186 -85.3725 256° West 179 206 8,600 -960 Descending Indianapolis Center
07:57PM 40.0056 -85.4414 256° West 193 222 7,400 -1,200 Descending Indianapolis Center
07:58PM 40.0131 -85.5169 277° West 205 236 6,200 -1,200 Descending Indianapolis Center
07:59PM 40.0161 -85.5917 273° West 207 238 5,000 -1,080 Descending Indianapolis Center
08:00PM 40.0192 -85.6644 273° West 205 236 4,000 -540 Descending Indianapolis Center
08:01PM 40.0172 -85.7283 268° West 190 219 4,000  Level Indianapolis Center
08:02PM 39.9981 -85.7833 246° West 175 201 4,000 -60 Level Indianapolis Center
08:03PM 39.9769 -85.8522 248° West 171 197 3,900  Descending Indianapolis Center
08:04PM 39.9586 -85.9092 247° West 171 197 4,000  Climbing Indianapolis Center
08:05PM 39.9389 -85.9689 247° West 170 196 4,000  Level Indianapolis Center